createdAt,value
2022-10-06T00:13:52.073Z,988.9
2022-10-06T00:28:25.032Z,989
2022-10-06T00:42:56.700Z,989.7
2022-10-06T00:57:27.196Z,989.9
2022-10-06T01:11:59.823Z,989.9
2022-10-06T01:26:30.353Z,989.9
2022-10-06T01:41:02.397Z,990.2
2022-10-06T01:55:32.915Z,990.4
2022-10-06T02:10:04.622Z,990.5
2022-10-06T02:24:36.707Z,990.6
2022-10-06T02:39:09.027Z,990.7
2022-10-06T02:53:41.880Z,990.9
2022-10-06T03:08:14.560Z,991.1
2022-10-06T03:22:46.491Z,991.4
2022-10-06T03:37:18.271Z,991.6
2022-10-06T03:51:50.218Z,991.9
2022-10-06T04:06:21.432Z,992.2
2022-10-06T04:20:54.185Z,992.4
2022-10-06T04:35:27.308Z,992.8
2022-10-06T04:49:59.106Z,992.9
2022-10-06T05:04:32.137Z,993.3
2022-10-06T05:19:04.709Z,993.5
2022-10-06T05:33:37.674Z,993.6
2022-10-06T05:48:09.809Z,993.8
2022-10-06T06:02:42.845Z,994.1
2022-10-06T06:17:13.877Z,994.4
2022-10-06T06:31:46.776Z,994.6
2022-10-06T06:46:19.248Z,994.8
2022-10-06T07:00:52.644Z,995.1
2022-10-06T07:15:24.415Z,995.2
2022-10-06T07:29:57.787Z,995.4
2022-10-06T07:44:30.632Z,995.6
2022-10-06T07:59:03.031Z,995.8
2022-10-06T08:13:37.430Z,996.1
2022-10-06T08:28:20.330Z,996.3
2022-10-06T08:42:56.112Z,996.4
2022-10-06T08:57:25.410Z,996.4
2022-10-06T09:12:04.485Z,996.4
2022-10-06T09:26:39.063Z,996.6
2022-10-06T09:41:10.024Z,996.8
2022-10-06T09:55:34.645Z,996.9
2022-10-06T10:10:06.728Z,996.9
2022-10-06T10:24:39.995Z,997
2022-10-06T10:39:15.204Z,997
2022-10-06T10:53:47.260Z,996.9
2022-10-06T11:08:18.854Z,997
2022-10-06T11:22:51.870Z,997
2022-10-06T11:37:23.149Z,997
2022-10-06T11:52:05.859Z,996.9
2022-10-06T12:06:36.135Z,996.9
2022-10-06T12:21:08.567Z,996.8
2022-10-06T12:35:40.582Z,996.8
2022-10-06T12:50:12.615Z,996.6
2022-10-06T13:04:44.656Z,996.6
2022-10-06T13:19:18.737Z,996.5
2022-10-06T13:33:52.259Z,996.5
2022-10-06T13:48:25.090Z,996.5
2022-10-06T14:02:57.528Z,996.5
2022-10-06T14:17:29.218Z,996.5
2022-10-06T14:32:02.004Z,996.4
2022-10-06T14:46:35.102Z,996.3
2022-10-06T15:01:06.531Z,996.3
2022-10-06T15:15:38.678Z,996.3
2022-10-06T15:30:10.477Z,996.3
2022-10-06T15:44:42.780Z,996.2
2022-10-06T15:59:14.303Z,996.2
2022-10-06T16:13:44.905Z,996.2
2022-10-06T16:28:16.785Z,996
2022-10-06T16:42:47.947Z,996.1
2022-10-06T16:57:18.983Z,996.2
2022-10-06T17:11:49.691Z,996.2
2022-10-06T17:26:20.494Z,996.3
2022-10-06T17:40:52.500Z,996.4
2022-10-06T17:55:25.677Z,996.4
2022-10-06T18:09:56.791Z,996.3
2022-10-06T18:24:29.397Z,996.5
2022-10-06T18:38:59.390Z,996.3
2022-10-06T18:53:30.579Z,996.5
2022-10-06T19:08:04.042Z,996.5
2022-10-06T19:22:37.431Z,996.5
2022-10-06T19:37:06.986Z,996.6
2022-10-06T19:51:39.861Z,996.6
2022-10-06T20:06:11.946Z,996.6
2022-10-06T20:20:44.177Z,996.7
2022-10-06T20:35:16.276Z,996.7
2022-10-06T20:49:47.603Z,996.8
2022-10-06T21:04:20.660Z,996.6
2022-10-06T21:18:51.909Z,996.5
2022-10-06T21:33:23.497Z,996.4
2022-10-06T21:47:54.142Z,996.3
2022-10-06T22:02:27.017Z,996.3
2022-10-06T22:16:58.721Z,996.1
2022-10-06T22:31:31.719Z,996.1
2022-10-06T22:46:03.093Z,995.9
2022-10-06T23:00:35.302Z,995.7
2022-10-06T23:15:07.638Z,995.6
2022-10-06T23:29:39.209Z,995.4
2022-10-06T23:44:11.233Z,995.4
2022-10-06T23:58:42.239Z,995.3
